sensor_id;sensor_type;location;lat;lon;timestamp;P1;durP1;ratioP1;P2;durP2;ratioP2
20298;SDS011;10308;42.688;23.256;2023-12-14T00:01:12;15.68;;;14.07;;
20298;SDS011;10308;42.688;23.256;2023-12-14T00:03:39;15.10;;;13.60;;
20298;SDS011;10308;42.688;23.256;2023-12-14T00:06:11;14.50;;;13.20;;
20298;SDS011;10308;42.688;23.256;2023-12-14T00:08:38;14.02;;;12.63;;
20298;SDS011;10308;42.688;23.256;2023-12-14T00:11:05;14.93;;;13.52;;
20298;SDS011;10308;42.688;23.256;2023-12-14T00:13:32;14.82;;;13.25;;
20298;SDS011;10308;42.688;23.256;2023-12-14T00:16:02;15.15;;;13.27;;
20298;SDS011;10308;42.688;23.256;2023-12-14T00:18:29;15.82;;;14.25;;
20298;SDS011;10308;42.688;23.256;2023-12-14T00:20:56;14.75;;;13.25;;
20298;SDS011;10308;42.688;23.256;2023-12-14T00:23:25;15.38;;;13.88;;
20298;SDS011;10308;42.688;23.256;2023-12-14T00:25:52;15.48;;;14.00;;
20298;SDS011;10308;42.688;23.256;2023-12-14T00:28:19;14.98;;;13.52;;
20298;SDS011;10308;42.688;23.256;2023-12-14T00:30:47;15.38;;;13.88;;
20298;SDS011;10308;42.688;23.256;2023-12-14T00:33:14;15.55;;;14.05;;
20298;SDS011;10308;42.688;23.256;2023-12-14T00:35:41;14.93;;;13.35;;
20298;SDS011;10308;42.688;23.256;2023-12-14T00:38:08;14.30;;;13.00;;
20298;SDS011;10308;42.688;23.256;2023-12-14T00:40:37;14.68;;;13.27;;
20298;SDS011;10308;42.688;23.256;2023-12-14T00:43:06;15.18;;;13.70;;
20298;SDS011;10308;42.688;23.256;2023-12-14T00:45:32;14.32;;;13.02;;
20298;SDS011;10308;42.688;23.256;2023-12-14T00:47:59;13.95;;;12.57;;
20298;SDS011;10308;42.688;23.256;2023-12-14T00:50:26;14.70;;;13.27;;
20298;SDS011;10308;42.688;23.256;2023-12-14T00:52:53;14.65;;;13.25;;
20298;SDS011;10308;42.688;23.256;2023-12-14T00:55:20;14.07;;;12.85;;
20298;SDS011;10308;42.688;23.256;2023-12-14T00:57:49;14.52;;;13.23;;
20298;SDS011;10308;42.688;23.256;2023-12-14T01:00:16;14.20;;;12.80;;
20298;SDS011;10308;42.688;23.256;2023-12-14T01:02:43;13.35;;;12.10;;
20298;SDS011;10308;42.688;23.256;2023-12-14T01:05:10;14.77;;;13.27;;
20298;SDS011;10308;42.688;23.256;2023-12-14T01:07:37;14.77;;;13.38;;
20298;SDS011;10308;42.688;23.256;2023-12-14T01:10:05;14.15;;;12.85;;
20298;SDS011;10308;42.688;23.256;2023-12-14T01:12:34;13.40;;;12.20;;
20298;SDS011;10308;42.688;23.256;2023-12-14T01:15:04;13.23;;;11.95;;
20298;SDS011;10308;42.688;23.256;2023-12-14T01:17:32;12.32;;;11.23;;
20298;SDS011;10308;42.688;23.256;2023-12-14T01:20:02;13.30;;;12.10;;
20298;SDS011;10308;42.688;23.256;2023-12-14T01:22:32;12.55;;;11.35;;
20298;SDS011;10308;42.688;23.256;2023-12-14T01:24:59;12.38;;;11.20;;
20298;SDS011;10308;42.688;23.256;2023-12-14T01:27:26;12.93;;;11.73;;
20298;SDS011;10308;42.688;23.256;2023-12-14T01:29:53;11.88;;;10.80;;
20298;SDS011;10308;42.688;23.256;2023-12-14T01:32:22;12.52;;;11.32;;
20298;SDS011;10308;42.688;23.256;2023-12-14T01:34:48;12.25;;;11.10;;
20298;SDS011;10308;42.688;23.256;2023-12-14T01:37:15;12.48;;;11.27;;
20298;SDS011;10308;42.688;23.256;2023-12-14T01:39:42;12.02;;;10.93;;
20298;SDS011;10308;42.688;23.256;2023-12-14T01:42:09;12.88;;;11.60;;
20298;SDS011;10308;42.688;23.256;2023-12-14T01:44:36;12.77;;;11.57;;
20298;SDS011;10308;42.688;23.256;2023-12-14T01:47:03;12.85;;;11.75;;
20298;SDS011;10308;42.688;23.256;2023-12-14T01:49:32;13.02;;;11.93;;
20298;SDS011;10308;42.688;23.256;2023-12-14T01:51:59;13.35;;;12.05;;
20298;SDS011;10308;42.688;23.256;2023-12-14T01:54:26;12.85;;;11.55;;
20298;SDS011;10308;42.688;23.256;2023-12-14T01:56:53;13.95;;;12.55;;
20298;SDS011;10308;42.688;23.256;2023-12-14T01:59:20;12.82;;;11.63;;
20298;SDS011;10308;42.688;23.256;2023-12-14T02:01:47;14.52;;;13.13;;
20298;SDS011;10308;42.688;23.256;2023-12-14T02:04:21;15.00;;;13.63;;
20298;SDS011;10308;42.688;23.256;2023-12-14T02:06:50;14.00;;;12.80;;
20298;SDS011;10308;42.688;23.256;2023-12-14T02:09:17;13.93;;;12.63;;
20298;SDS011;10308;42.688;23.256;2023-12-14T02:11:44;13.63;;;12.20;;
20298;SDS011;10308;42.688;23.256;2023-12-14T02:14:11;13.60;;;12.30;;
20298;SDS011;10308;42.688;23.256;2023-12-14T02:16:38;14.27;;;12.90;;
20298;SDS011;10308;42.688;23.256;2023-12-14T02:19:05;14.18;;;12.77;;
20298;SDS011;10308;42.688;23.256;2023-12-14T02:21:34;13.20;;;12.00;;
20298;SDS011;10308;42.688;23.256;2023-12-14T02:24:02;13.60;;;12.40;;
20298;SDS011;10308;42.688;23.256;2023-12-14T02:26:29;13.20;;;12.02;;
20298;SDS011;10308;42.688;23.256;2023-12-14T02:28:57;13.60;;;12.40;;
20298;SDS011;10308;42.688;23.256;2023-12-14T02:31:23;13.43;;;12.15;;
20298;SDS011;10308;42.688;23.256;2023-12-14T02:33:51;12.85;;;11.73;;
20298;SDS011;10308;42.688;23.256;2023-12-14T02:36:18;13.15;;;11.82;;
20298;SDS011;10308;42.688;23.256;2023-12-14T02:38:47;12.35;;;11.27;;
20298;SDS011;10308;42.688;23.256;2023-12-14T02:41:15;13.95;;;12.57;;
20298;SDS011;10308;42.688;23.256;2023-12-14T02:43:45;11.50;;;10.40;;
20298;SDS011;10308;42.688;23.256;2023-12-14T02:46:12;13.05;;;11.85;;
20298;SDS011;10308;42.688;23.256;2023-12-14T02:48:40;13.43;;;12.23;;
20298;SDS011;10308;42.688;23.256;2023-12-14T02:51:11;13.30;;;12.10;;
20298;SDS011;10308;42.688;23.256;2023-12-14T02:53:39;12.55;;;11.40;;
20298;SDS011;10308;42.688;23.256;2023-12-14T02:56:09;13.40;;;12.13;;
20298;SDS011;10308;42.688;23.256;2023-12-14T02:58:41;13.57;;;12.27;;
20298;SDS011;10308;42.688;23.256;2023-12-14T03:01:14;12.90;;;11.73;;
20298;SDS011;10308;42.688;23.256;2023-12-14T03:03:41;14.45;;;13.00;;
20298;SDS011;10308;42.688;23.256;2023-12-14T03:06:08;14.73;;;13.38;;
20298;SDS011;10308;42.688;23.256;2023-12-14T03:08:36;14.98;;;13.40;;
20298;SDS011;10308;42.688;23.256;2023-12-14T03:11:03;14.07;;;12.77;;
20298;SDS011;10308;42.688;23.256;2023-12-14T03:13:30;14.48;;;13.10;;
20298;SDS011;10308;42.688;23.256;2023-12-14T03:15:59;16.70;;;15.07;;
20298;SDS011;10308;42.688;23.256;2023-12-14T03:18:29;14.77;;;13.38;;
20298;SDS011;10308;42.688;23.256;2023-12-14T03:20:56;17.15;;;13.95;;
20298;SDS011;10308;42.688;23.256;2023-12-14T03:23:23;15.15;;;13.68;;
20298;SDS011;10308;42.688;23.256;2023-12-14T03:25:50;15.43;;;13.18;;
20298;SDS011;10308;42.688;23.256;2023-12-14T03:28:17;18.15;;;16.48;;
20298;SDS011;10308;42.688;23.256;2023-12-14T03:30:44;20.85;;;18.88;;
20298;SDS011;10308;42.688;23.256;2023-12-14T03:33:12;25.90;;;23.33;;
20298;SDS011;10308;42.688;23.256;2023-12-14T03:35:39;18.02;;;16.13;;
20298;SDS011;10308;42.688;23.256;2023-12-14T03:38:07;21.08;;;19.13;;
20298;SDS011;10308;42.688;23.256;2023-12-14T03:40:34;25.98;;;23.17;;
20298;SDS011;10308;42.688;23.256;2023-12-14T03:43:01;33.88;;;27.30;;
20298;SDS011;10308;42.688;23.256;2023-12-14T03:45:29;43.53;;;31.27;;
20298;SDS011;10308;42.688;23.256;2023-12-14T03:47:56;30.98;;;24.98;;
20298;SDS011;10308;42.688;23.256;2023-12-14T03:50:25;21.25;;;17.17;;
20298;SDS011;10308;42.688;23.256;2023-12-14T03:52:53;25.58;;;21.13;;
20298;SDS011;10308;42.688;23.256;2023-12-14T03:55:20;21.65;;;18.90;;
20298;SDS011;10308;42.688;23.256;2023-12-14T03:57:47;19.95;;;17.70;;
20298;SDS011;10308;42.688;23.256;2023-12-14T04:00:14;23.50;;;19.58;;
20298;SDS011;10308;42.688;23.256;2023-12-14T04:02:44;18.30;;;15.80;;
20298;SDS011;10308;42.688;23.256;2023-12-14T04:05:11;19.13;;;17.17;;
20298;SDS011;10308;42.688;23.256;2023-12-14T04:07:40;13.93;;;12.52;;
20298;SDS011;10308;42.688;23.256;2023-12-14T04:10:07;14.07;;;12.63;;
20298;SDS011;10308;42.688;23.256;2023-12-14T04:12:35;11.80;;;10.60;;
20298;SDS011;10308;42.688;23.256;2023-12-14T04:15:03;11.23;;;10.02;;
20298;SDS011;10308;42.688;23.256;2023-12-14T04:17:31;12.55;;;11.25;;
20298;SDS011;10308;42.688;23.256;2023-12-14T04:19:58;10.60;;;9.60;;
20298;SDS011;10308;42.688;23.256;2023-12-14T04:22:25;10.50;;;9.60;;
20298;SDS011;10308;42.688;23.256;2023-12-14T04:24:56;8.52;;;7.72;;
20298;SDS011;10308;42.688;23.256;2023-12-14T04:27:23;11.93;;;9.85;;
20298;SDS011;10308;42.688;23.256;2023-12-14T04:29:53;8.57;;;7.80;;
20298;SDS011;10308;42.688;23.256;2023-12-14T04:32:20;7.15;;;6.47;;
20298;SDS011;10308;42.688;23.256;2023-12-14T04:34:46;6.50;;;5.90;;
20298;SDS011;10308;42.688;23.256;2023-12-14T04:37:13;7.10;;;6.50;;
20298;SDS011;10308;42.688;23.256;2023-12-14T04:39:40;7.40;;;6.78;;
20298;SDS011;10308;42.688;23.256;2023-12-14T04:42:09;6.80;;;6.20;;
20298;SDS011;10308;42.688;23.256;2023-12-14T04:44:36;7.20;;;6.60;;
20298;SDS011;10308;42.688;23.256;2023-12-14T04:47:04;7.45;;;6.22;;
20298;SDS011;10308;42.688;23.256;2023-12-14T04:49:31;6.72;;;6.22;;
20298;SDS011;10308;42.688;23.256;2023-12-14T04:51:58;6.72;;;6.13;;
20298;SDS011;10308;42.688;23.256;2023-12-14T04:54:26;7.20;;;6.50;;
20298;SDS011;10308;42.688;23.256;2023-12-14T04:56:55;7.07;;;6.47;;
20298;SDS011;10308;42.688;23.256;2023-12-14T04:59:23;7.70;;;6.90;;
20298;SDS011;10308;42.688;23.256;2023-12-14T05:01:50;8.52;;;7.72;;
20298;SDS011;10308;42.688;23.256;2023-12-14T05:04:17;10.23;;;6.68;;
20298;SDS011;10308;42.688;23.256;2023-12-14T05:06:44;7.30;;;6.60;;
20298;SDS011;10308;42.688;23.256;2023-12-14T05:09:11;7.45;;;6.80;;
20298;SDS011;10308;42.688;23.256;2023-12-14T05:11:39;7.40;;;6.78;;
20298;SDS011;10308;42.688;23.256;2023-12-14T05:14:06;7.70;;;7.00;;
20298;SDS011;10308;42.688;23.256;2023-12-14T05:16:34;8.25;;;7.45;;
20298;SDS011;10308;42.688;23.256;2023-12-14T05:19:01;8.52;;;7.72;;
20298;SDS011;10308;42.688;23.256;2023-12-14T05:21:28;9.43;;;8.30;;
20298;SDS011;10308;42.688;23.256;2023-12-14T05:23:56;9.50;;;8.60;;
20298;SDS011;10308;42.688;23.256;2023-12-14T05:26:23;9.20;;;8.40;;
20298;SDS011;10308;42.688;23.256;2023-12-14T05:28:49;9.43;;;8.48;;
20298;SDS011;10308;42.688;23.256;2023-12-14T05:31:17;10.32;;;9.43;;
20298;SDS011;10308;42.688;23.256;2023-12-14T05:33:45;10.05;;;9.05;;
20298;SDS011;10308;42.688;23.256;2023-12-14T05:36:12;9.93;;;9.02;;
20298;SDS011;10308;42.688;23.256;2023-12-14T05:38:40;9.93;;;8.98;;
20298;SDS011;10308;42.688;23.256;2023-12-14T05:41:07;10.10;;;9.10;;
20298;SDS011;10308;42.688;23.256;2023-12-14T05:43:35;11.15;;;10.05;;
20298;SDS011;10308;42.688;23.256;2023-12-14T05:46:02;10.32;;;9.43;;
20298;SDS011;10308;42.688;23.256;2023-12-14T05:48:30;10.75;;;9.70;;
20298;SDS011;10308;42.688;23.256;2023-12-14T05:51:01;10.52;;;9.43;;
20298;SDS011;10308;42.688;23.256;2023-12-14T05:53:28;11.30;;;10.30;;
20298;SDS011;10308;42.688;23.256;2023-12-14T05:55:55;10.02;;;9.13;;
20298;SDS011;10308;42.688;23.256;2023-12-14T05:58:22;11.10;;;10.00;;
20298;SDS011;10308;42.688;23.256;2023-12-14T06:00:49;12.50;;;11.40;;
20298;SDS011;10308;42.688;23.256;2023-12-14T06:03:16;13.38;;;11.98;;
20298;SDS011;10308;42.688;23.256;2023-12-14T06:05:43;12.85;;;11.73;;
20298;SDS011;10308;42.688;23.256;2023-12-14T06:08:11;10.60;;;9.60;;
20298;SDS011;10308;42.688;23.256;2023-12-14T06:10:39;11.77;;;10.60;;
20298;SDS011;10308;42.688;23.256;2023-12-14T06:13:07;9.07;;;8.20;;
20298;SDS011;10308;42.688;23.256;2023-12-14T06:15:34;9.30;;;8.40;;
20298;SDS011;10308;42.688;23.256;2023-12-14T06:18:01;9.13;;;8.32;;
20298;SDS011;10308;42.688;23.256;2023-12-14T06:20:30;8.65;;;7.95;;
20298;SDS011;10308;42.688;23.256;2023-12-14T06:22:57;8.65;;;7.93;;
20298;SDS011;10308;42.688;23.256;2023-12-14T06:25:27;8.82;;;7.93;;
20298;SDS011;10308;42.688;23.256;2023-12-14T06:27:54;9.63;;;8.77;;
20298;SDS011;10308;42.688;23.256;2023-12-14T06:30:21;8.52;;;7.75;;
20298;SDS011;10308;42.688;23.256;2023-12-14T06:32:49;8.27;;;7.50;;
20298;SDS011;10308;42.688;23.256;2023-12-14T06:35:16;8.63;;;7.82;;
20298;SDS011;10308;42.688;23.256;2023-12-14T06:37:43;8.20;;;7.38;;
20298;SDS011;10308;42.688;23.256;2023-12-14T06:40:10;8.05;;;7.25;;
20298;SDS011;10308;42.688;23.256;2023-12-14T06:42:39;9.13;;;8.30;;
20298;SDS011;10308;42.688;23.256;2023-12-14T06:45:10;8.98;;;8.00;;
20298;SDS011;10308;42.688;23.256;2023-12-14T06:47:36;9.27;;;8.30;;
20298;SDS011;10308;42.688;23.256;2023-12-14T06:50:06;9.18;;;8.27;;
20298;SDS011;10308;42.688;23.256;2023-12-14T06:52:33;8.15;;;7.20;;
20298;SDS011;10308;42.688;23.256;2023-12-14T06:55:00;8.55;;;7.80;;
20298;SDS011;10308;42.688;23.256;2023-12-14T06:57:27;8.48;;;7.57;;
20298;SDS011;10308;42.688;23.256;2023-12-14T06:59:56;8.32;;;7.53;;
20298;SDS011;10308;42.688;23.256;2023-12-14T07:02:24;9.45;;;8.30;;
20298;SDS011;10308;42.688;23.256;2023-12-14T07:04:50;9.25;;;8.35;;
20298;SDS011;10308;42.688;23.256;2023-12-14T07:07:17;10.13;;;8.90;;
20298;SDS011;10308;42.688;23.256;2023-12-14T07:09:45;10.20;;;9.20;;
20298;SDS011;10308;42.688;23.256;2023-12-14T07:12:12;9.88;;;8.82;;
20298;SDS011;10308;42.688;23.256;2023-12-14T07:14:40;9.52;;;8.60;;
20298;SDS011;10308;42.688;23.256;2023-12-14T07:17:10;9.40;;;8.50;;
20298;SDS011;10308;42.688;23.256;2023-12-14T07:19:37;8.95;;;8.05;;
20298;SDS011;10308;42.688;23.256;2023-12-14T07:22:03;9.73;;;8.82;;
20298;SDS011;10308;42.688;23.256;2023-12-14T07:24:30;9.73;;;8.88;;
20298;SDS011;10308;42.688;23.256;2023-12-14T07:26:57;9.43;;;8.52;;
20298;SDS011;10308;42.688;23.256;2023-12-14T07:29:25;10.82;;;9.63;;
20298;SDS011;10308;42.688;23.256;2023-12-14T07:31:52;9.25;;;8.45;;
20298;SDS011;10308;42.688;23.256;2023-12-14T07:34:21;9.88;;;8.88;;
20298;SDS011;10308;42.688;23.256;2023-12-14T07:36:50;10.85;;;9.75;;
20298;SDS011;10308;42.688;23.256;2023-12-14T07:39:16;12.23;;;10.70;;
20298;SDS011;10308;42.688;23.256;2023-12-14T07:41:44;11.07;;;9.98;;
20298;SDS011;10308;42.688;23.256;2023-12-14T07:44:11;10.23;;;9.30;;
20298;SDS011;10308;42.688;23.256;2023-12-14T07:46:38;13.25;;;10.23;;
20298;SDS011;10308;42.688;23.256;2023-12-14T07:49:07;12.05;;;9.75;;
20298;SDS011;10308;42.688;23.256;2023-12-14T07:51:37;11.27;;;10.18;;
20298;SDS011;10308;42.688;23.256;2023-12-14T07:54:04;11.73;;;10.55;;
20298;SDS011;10308;42.688;23.256;2023-12-14T07:56:31;14.60;;;11.38;;
20298;SDS011;10308;42.688;23.256;2023-12-14T07:59:00;11.93;;;10.05;;
20298;SDS011;10308;42.688;23.256;2023-12-14T08:01:31;11.27;;;10.18;;
20298;SDS011;10308;42.688;23.256;2023-12-14T08:03:59;11.88;;;10.77;;
20298;SDS011;10308;42.688;23.256;2023-12-14T08:06:26;12.52;;;11.23;;
20298;SDS011;10308;42.688;23.256;2023-12-14T08:08:54;12.30;;;11.10;;
20298;SDS011;10308;42.688;23.256;2023-12-14T08:11:23;14.45;;;12.95;;
20298;SDS011;10308;42.688;23.256;2023-12-14T08:13:50;14.63;;;13.13;;
20298;SDS011;10308;42.688;23.256;2023-12-14T08:16:17;13.02;;;11.73;;
20298;SDS011;10308;42.688;23.256;2023-12-14T08:18:44;11.07;;;9.98;;
20298;SDS011;10308;42.688;23.256;2023-12-14T08:21:15;12.93;;;11.35;;
20298;SDS011;10308;42.688;23.256;2023-12-14T08:23:42;10.52;;;9.43;;
20298;SDS011;10308;42.688;23.256;2023-12-14T08:26:11;11.15;;;9.77;;
20298;SDS011;10308;42.688;23.256;2023-12-14T08:28:38;10.20;;;9.20;;
20298;SDS011;10308;42.688;23.256;2023-12-14T08:31:05;10.98;;;9.95;;
20298;SDS011;10308;42.688;23.256;2023-12-14T08:33:34;10.75;;;9.65;;
20298;SDS011;10308;42.688;23.256;2023-12-14T08:36:02;14.02;;;10.00;;
20298;SDS011;10308;42.688;23.256;2023-12-14T08:38:30;11.75;;;9.85;;
20298;SDS011;10308;42.688;23.256;2023-12-14T08:40:57;10.80;;;9.50;;
20298;SDS011;10308;42.688;23.256;2023-12-14T08:43:27;10.55;;;8.63;;
20298;SDS011;10308;42.688;23.256;2023-12-14T08:45:54;10.55;;;9.55;;
20298;SDS011;10308;42.688;23.256;2023-12-14T08:48:21;14.23;;;10.45;;
20298;SDS011;10308;42.688;23.256;2023-12-14T08:50:50;11.93;;;10.73;;
20298;SDS011;10308;42.688;23.256;2023-12-14T08:53:20;11.60;;;10.40;;
20298;SDS011;10308;42.688;23.256;2023-12-14T08:55:47;12.07;;;9.65;;
20298;SDS011;10308;42.688;23.256;2023-12-14T08:58:15;10.00;;;8.63;;
20298;SDS011;10308;42.688;23.256;2023-12-14T09:00:44;7.32;;;6.47;;
20298;SDS011;10308;42.688;23.256;2023-12-14T09:03:11;8.15;;;7.05;;
20298;SDS011;10308;42.688;23.256;2023-12-14T09:05:39;10.10;;;7.38;;
20298;SDS011;10308;42.688;23.256;2023-12-14T09:08:08;7.60;;;6.78;;
20298;SDS011;10308;42.688;23.256;2023-12-14T09:10:35;13.20;;;7.82;;
20298;SDS011;10308;42.688;23.256;2023-12-14T09:13:03;7.32;;;6.22;;
20298;SDS011;10308;42.688;23.256;2023-12-14T09:15:30;9.80;;;6.45;;
20298;SDS011;10308;42.688;23.256;2023-12-14T09:17:58;8.00;;;6.63;;
20298;SDS011;10308;42.688;23.256;2023-12-14T09:20:27;9.00;;;7.32;;
20298;SDS011;10308;42.688;23.256;2023-12-14T09:22:54;7.82;;;6.97;;
20298;SDS011;10308;42.688;23.256;2023-12-14T09:25:21;7.88;;;7.07;;
20298;SDS011;10308;42.688;23.256;2023-12-14T09:27:50;8.05;;;6.70;;
20298;SDS011;10308;42.688;23.256;2023-12-14T09:30:17;8.00;;;7.25;;
20298;SDS011;10308;42.688;23.256;2023-12-14T09:32:45;7.65;;;6.68;;
20298;SDS011;10308;42.688;23.256;2023-12-14T09:35:14;7.45;;;6.07;;
20298;SDS011;10308;42.688;23.256;2023-12-14T09:37:44;7.25;;;6.57;;
20298;SDS011;10308;42.688;23.256;2023-12-14T09:40:11;10.70;;;7.45;;
20298;SDS011;10308;42.688;23.256;2023-12-14T09:42:39;8.70;;;6.53;;
20298;SDS011;10308;42.688;23.256;2023-12-14T09:45:07;7.75;;;6.15;;
20298;SDS011;10308;42.688;23.256;2023-12-14T09:47:37;9.93;;;7.65;;
20298;SDS011;10308;42.688;23.256;2023-12-14T09:50:05;11.65;;;9.90;;
20298;SDS011;10308;42.688;23.256;2023-12-14T09:52:35;12.75;;;8.27;;
20298;SDS011;10308;42.688;23.256;2023-12-14T09:55:02;13.63;;;10.70;;
20298;SDS011;10308;42.688;23.256;2023-12-14T09:57:30;22.90;;;14.30;;
20298;SDS011;10308;42.688;23.256;2023-12-14T09:59:57;23.00;;;14.30;;
20298;SDS011;10308;42.688;23.256;2023-12-14T10:02:24;15.75;;;10.63;;
20298;SDS011;10308;42.688;23.256;2023-12-14T10:04:52;8.98;;;7.05;;
20298;SDS011;10308;42.688;23.256;2023-12-14T10:07:19;7.18;;;6.43;;
20298;SDS011;10308;42.688;23.256;2023-12-14T10:09:49;7.85;;;7.05;;
20298;SDS011;10308;42.688;23.256;2023-12-14T10:12:18;8.27;;;6.57;;
20298;SDS011;10308;42.688;23.256;2023-12-14T10:14:47;8.55;;;7.28;;
20298;SDS011;10308;42.688;23.256;2023-12-14T10:17:16;7.75;;;7.00;;
20298;SDS011;10308;42.688;23.256;2023-12-14T10:19:45;11.30;;;8.98;;
20298;SDS011;10308;42.688;23.256;2023-12-14T10:22:13;18.98;;;13.40;;
20298;SDS011;10308;42.688;23.256;2023-12-14T10:24:43;17.55;;;14.70;;
20298;SDS011;10308;42.688;23.256;2023-12-14T10:27:12;18.80;;;15.88;;
20298;SDS011;10308;42.688;23.256;2023-12-14T10:29:41;17.60;;;15.43;;
20298;SDS011;10308;42.688;23.256;2023-12-14T10:32:10;18.83;;;15.23;;
20298;SDS011;10308;42.688;23.256;2023-12-14T10:34:37;21.85;;;17.58;;
20298;SDS011;10308;42.688;23.256;2023-12-14T10:37:05;18.80;;;15.07;;
20298;SDS011;10308;42.688;23.256;2023-12-14T10:39:32;15.98;;;14.32;;
20298;SDS011;10308;42.688;23.256;2023-12-14T10:42:02;13.30;;;11.63;;
20298;SDS011;10308;42.688;23.256;2023-12-14T10:44:32;10.60;;;9.50;;
20298;SDS011;10308;42.688;23.256;2023-12-14T10:47:02;8.68;;;7.80;;
20298;SDS011;10308;42.688;23.256;2023-12-14T10:49:30;7.90;;;7.10;;
20298;SDS011;10308;42.688;23.256;2023-12-14T10:51:59;8.88;;;7.50;;
20298;SDS011;10308;42.688;23.256;2023-12-14T10:54:28;6.28;;;5.78;;
20298;SDS011;10308;42.688;23.256;2023-12-14T10:56:57;7.15;;;6.20;;
20298;SDS011;10308;42.688;23.256;2023-12-14T10:59:25;5.55;;;4.47;;
20298;SDS011;10308;42.688;23.256;2023-12-14T11:01:54;4.20;;;3.80;;
20298;SDS011;10308;42.688;23.256;2023-12-14T11:04:22;4.30;;;3.90;;
20298;SDS011;10308;42.688;23.256;2023-12-14T11:06:49;4.07;;;3.38;;
20298;SDS011;10308;42.688;23.256;2023-12-14T11:09:21;3.83;;;3.10;;
20298;SDS011;10308;42.688;23.256;2023-12-14T11:11:55;3.30;;;3.00;;
20298;SDS011;10308;42.688;23.256;2023-12-14T11:14:25;2.80;;;2.60;;
20298;SDS011;10308;42.688;23.256;2023-12-14T11:16:55;3.13;;;2.53;;
20298;SDS011;10308;42.688;23.256;2023-12-14T11:19:26;2.60;;;2.40;;
20298;SDS011;10308;42.688;23.256;2023-12-14T11:24:53;3.30;;;2.50;;
20298;SDS011;10308;42.688;23.256;2023-12-14T11:27:25;2.38;;;2.20;;
20298;SDS011;10308;42.688;23.256;2023-12-14T11:29:53;2.45;;;2.20;;
20298;SDS011;10308;42.688;23.256;2023-12-14T11:32:22;2.85;;;2.55;;
20298;SDS011;10308;42.688;23.256;2023-12-14T11:34:52;3.03;;;2.05;;
20298;SDS011;10308;42.688;23.256;2023-12-14T11:37:19;1.50;;;1.40;;
20298;SDS011;10308;42.688;23.256;2023-12-14T11:39:49;2.03;;;1.50;;
20298;SDS011;10308;42.688;23.256;2023-12-14T11:42:17;2.47;;;2.30;;
20298;SDS011;10308;42.688;23.256;2023-12-14T11:44:45;2.25;;;1.70;;
20298;SDS011;10308;42.688;23.256;2023-12-14T11:47:13;1.60;;;1.50;;
20298;SDS011;10308;42.688;23.256;2023-12-14T11:49:42;2.10;;;1.40;;
20298;SDS011;10308;42.688;23.256;2023-12-14T11:52:09;1.50;;;1.30;;
20298;SDS011;10308;42.688;23.256;2023-12-14T11:54:37;1.55;;;1.45;;
20298;SDS011;10308;42.688;23.256;2023-12-14T11:57:04;1.75;;;1.50;;
20298;SDS011;10308;42.688;23.256;2023-12-14T11:59:34;1.30;;;1.20;;
20298;SDS011;10308;42.688;23.256;2023-12-14T12:02:04;1.25;;;1.15;;
20298;SDS011;10308;42.688;23.256;2023-12-14T12:04:31;1.42;;;1.30;;
20298;SDS011;10308;42.688;23.256;2023-12-14T12:07:00;1.50;;;1.40;;
20298;SDS011;10308;42.688;23.256;2023-12-14T12:09:37;1.75;;;1.35;;
20298;SDS011;10308;42.688;23.256;2023-12-14T12:12:08;1.15;;;1.10;;
20298;SDS011;10308;42.688;23.256;2023-12-14T12:14:37;1.42;;;1.00;;
20298;SDS011;10308;42.688;23.256;2023-12-14T12:17:05;1.75;;;1.25;;
20298;SDS011;10308;42.688;23.256;2023-12-14T12:19:32;1.02;;;1.00;;
20298;SDS011;10308;42.688;23.256;2023-12-14T12:22:03;1.05;;;1.05;;
20298;SDS011;10308;42.688;23.256;2023-12-14T12:24:30;0.90;;;0.90;;
20298;SDS011;10308;42.688;23.256;2023-12-14T12:26:58;3.05;;;1.58;;
20298;SDS011;10308;42.688;23.256;2023-12-14T12:29:26;1.30;;;1.20;;
20298;SDS011;10308;42.688;23.256;2023-12-14T12:31:53;1.05;;;1.05;;
20298;SDS011;10308;42.688;23.256;2023-12-14T12:34:20;1.63;;;1.30;;
20298;SDS011;10308;42.688;23.256;2023-12-14T12:36:48;1.30;;;1.20;;
20298;SDS011;10308;42.688;23.256;2023-12-14T12:39:17;2.00;;;1.35;;
20298;SDS011;10308;42.688;23.256;2023-12-14T12:41:45;1.10;;;1.10;;
20298;SDS011;10308;42.688;23.256;2023-12-14T12:44:12;1.23;;;1.13;;
20298;SDS011;10308;42.688;23.256;2023-12-14T12:46:39;1.48;;;1.38;;
20298;SDS011;10308;42.688;23.256;2023-12-14T12:49:06;1.95;;;1.83;;
20298;SDS011;10308;42.688;23.256;2023-12-14T12:51:33;1.75;;;1.65;;
20298;SDS011;10308;42.688;23.256;2023-12-14T12:54:01;1.60;;;1.50;;
20298;SDS011;10308;42.688;23.256;2023-12-14T12:56:30;1.50;;;1.20;;
20298;SDS011;10308;42.688;23.256;2023-12-14T12:58:57;1.38;;;1.27;;
20298;SDS011;10308;42.688;23.256;2023-12-14T13:01:24;1.73;;;1.50;;
20298;SDS011;10308;42.688;23.256;2023-12-14T13:03:53;1.30;;;1.20;;
20298;SDS011;10308;42.688;23.256;2023-12-14T13:06:20;1.33;;;1.20;;
20298;SDS011;10308;42.688;23.256;2023-12-14T13:08:47;1.65;;;1.38;;
20298;SDS011;10308;42.688;23.256;2023-12-14T13:11:14;1.20;;;1.10;;
20298;SDS011;10308;42.688;23.256;2023-12-14T13:13:42;1.45;;;1.27;;
20298;SDS011;10308;42.688;23.256;2023-12-14T13:16:10;1.17;;;1.08;;
20298;SDS011;10308;42.688;23.256;2023-12-14T13:18:38;1.30;;;1.20;;
20298;SDS011;10308;42.688;23.256;2023-12-14T13:21:05;1.00;;;1.00;;
20298;SDS011;10308;42.688;23.256;2023-12-14T13:23:33;1.60;;;1.35;;
20298;SDS011;10308;42.688;23.256;2023-12-14T13:26:00;1.50;;;1.40;;
20298;SDS011;10308;42.688;23.256;2023-12-14T13:28:28;1.33;;;1.10;;
20298;SDS011;10308;42.688;23.256;2023-12-14T13:30:57;1.35;;;1.25;;
20298;SDS011;10308;42.688;23.256;2023-12-14T13:33:23;1.27;;;1.27;;
20298;SDS011;10308;42.688;23.256;2023-12-14T13:35:50;2.53;;;1.60;;
20298;SDS011;10308;42.688;23.256;2023-12-14T13:38:18;1.88;;;1.60;;
20298;SDS011;10308;42.688;23.256;2023-12-14T13:40:45;1.80;;;1.70;;
20298;SDS011;10308;42.688;23.256;2023-12-14T13:43:12;2.30;;;2.10;;
20298;SDS011;10308;42.688;23.256;2023-12-14T13:45:39;1.90;;;1.80;;
20298;SDS011;10308;42.688;23.256;2023-12-14T13:48:08;1.63;;;1.52;;
20298;SDS011;10308;42.688;23.256;2023-12-14T13:50:36;1.98;;;1.70;;
20298;SDS011;10308;42.688;23.256;2023-12-14T13:53:04;2.33;;;1.52;;
20298;SDS011;10308;42.688;23.256;2023-12-14T13:55:33;2.13;;;1.90;;
20298;SDS011;10308;42.688;23.256;2023-12-14T13:58:01;1.98;;;1.67;;
20298;SDS011;10308;42.688;23.256;2023-12-14T14:00:28;2.10;;;1.67;;
20298;SDS011;10308;42.688;23.256;2023-12-14T14:02:55;1.25;;;1.15;;
20298;SDS011;10308;42.688;23.256;2023-12-14T14:05:27;1.20;;;1.20;;
20298;SDS011;10308;42.688;23.256;2023-12-14T14:07:54;1.45;;;1.20;;
20298;SDS011;10308;42.688;23.256;2023-12-14T14:10:21;1.70;;;1.60;;
20298;SDS011;10308;42.688;23.256;2023-12-14T14:12:48;2.78;;;1.77;;
20298;SDS011;10308;42.688;23.256;2023-12-14T14:15:16;2.03;;;1.50;;
20298;SDS011;10308;42.688;23.256;2023-12-14T14:17:43;1.52;;;1.40;;
20298;SDS011;10308;42.688;23.256;2023-12-14T14:20:10;1.67;;;1.52;;
20298;SDS011;10308;42.688;23.256;2023-12-14T14:22:38;2.35;;;1.85;;
20298;SDS011;10308;42.688;23.256;2023-12-14T14:25:06;1.80;;;1.60;;
20298;SDS011;10308;42.688;23.256;2023-12-14T14:27:34;3.17;;;1.60;;
20298;SDS011;10308;42.688;23.256;2023-12-14T14:30:01;1.58;;;1.48;;